Sevierville, TN

04:24 AM EDT on Agost 26, 2016 (GMT -0400)
KOA Campground Pigeon Forge | | Change Station

Elev 1037 ft 35.79 °N, 83.55 °W | Updated 15 seconds ago

Clear
Clar
72.1 °F
Feels Like 70 °F
N
0.0
vent Variadís vent from SSO
Gusts 0.0 mph

Auèi
High -- | Low -- °F
--% Chance of Precip.
Yesterday
High -- | Low -- °F
Precip. -- Dins
Pression 30.09 Dins
Visibilitat 10.0 miles
Nivols Clar
Indèx de calor 70 °F
Punt de ròs 68 °F
Imor 88%
Rainfall 0.00 Dins
Snow Depth Not available.
7:01 AM 8:08 PM
Last Quarter, 37% visible
METAR KTYS 260753Z 00000KT 10SM CLR 24/22 A3013 RMK AO2 SLP190 T02390222
Pression 30.09 Dins
Visibilitat 10.0 miles
Nivols Clar
Indèx de calor 70 °F
Punt de ròs 68 °F
Imor 88%
Rainfall 0.00 Dins
Snow Depth Not available.
7:01 AM 8:08 PM
Last Quarter, 37% visible
METAR KTYS 260753Z 00000KT 10SM CLR 24/22 A3013 RMK AO2 SLP190 T02390222

10-Day Weather Forecast

Almanac

Astronomy

Aug. 26, 2016 Rise Set
Actual Time
Civil Twilight
Nautical Twilight
Astronomical Twilight
Luna
Length Of Visible Light
Length of Day
Tomorrow will be .
, % of the Moon is Illuminated

Today's Extremes

State Highs State Lows

Community

WunderPhotos

Upload Photos

1,935,062 photos uploaded!

WunderBlog® & News

Nearby

Air Quality

  Air Quality AQ Index Pollutant
Not available.

Snow Depth

Station Depth Elevation

Earthquake Activity

Vila Distance Mag. Time & Date
Minimum magnitude displayed is 2.5.

Coastal Water Temperatures

Luòc Temperatura

Stations

Nearby Weather Stations

Station Location Temp Vent freg Punt de ròs Imor vent Precip. Elev Mes al jorn Type
                   

Watches & Warnings

There are currently no watches in effect.